Coffeyville, Kansas
Current Conditions -  °F | °C
As of 4:12 AM on Sunday 23 Nov 2014 (Local Time) from KCFV Reporting Station
Overcast Overcast  
Wind Chill: 56°   Ceiling: 1000
Heat Index: 56°   Visibility: 9mi
Dew Point: 54°   Wind: 12mph
Humidity: 93%   Direction: 170°S
Pressure: 29.57"   Gusts: NA
Location:  37.03°N, 95.62°W
Report Text: KCFV 231012Z AUTO 17010KT 9SM OVC010 13/12 A2957 RMK AO2 T01330122
Loading
Personal Weather Stations






























Interactive Weather Map New forecast layout! Learn more

10-Day Weather Forecast

Advertisements
Track Severe Weather on mobile